createdAt,value
2018-11-20T00:00:01.440Z,7.83
2018-11-20T00:02:48.028Z,6.87
2018-11-20T00:05:44.596Z,7.83
2018-11-20T00:08:34.960Z,7.37
2018-11-20T00:11:28.492Z,8.13
2018-11-20T00:14:15.022Z,9.17
2018-11-20T00:17:05.628Z,9.83
2018-11-20T00:19:49.024Z,9.23
2018-11-20T00:22:42.884Z,8.57
2018-11-20T00:25:29.171Z,9.20
2018-11-20T00:28:07.431Z,9.73
2018-11-20T00:30:54.512Z,8.97
2018-11-20T00:33:45.083Z,9.97
2018-11-20T00:36:35.658Z,9.23
2018-11-20T00:39:28.401Z,7.70
2018-11-20T00:42:31.047Z,7.47
2018-11-20T00:45:24.229Z,9.03
2018-11-20T00:48:10.581Z,9.97
2018-11-20T00:50:58.240Z,9.00
2018-11-20T00:53:57.517Z,8.33
2018-11-20T00:57:04.487Z,8.93
2018-11-20T00:59:52.857Z,9.33
2018-11-20T01:02:49.432Z,7.83
2018-11-20T01:05:35.875Z,9.10
2018-11-20T01:08:23.705Z,9.13
2018-11-20T01:11:23.459Z,8.47
2018-11-20T01:14:10.105Z,8.63
2018-11-20T01:16:56.511Z,8.93
2018-11-20T01:19:46.748Z,8.77
2018-11-20T01:22:33.178Z,9.03
2018-11-20T01:25:12.228Z,8.93
2018-11-20T01:27:58.592Z,9.83
2018-11-20T01:30:45.112Z,9.13
2018-11-20T01:33:31.487Z,8.33
2018-11-20T01:36:17.895Z,8.93
2018-11-20T01:39:08.525Z,9.37
2018-11-20T01:41:46.919Z,8.27
2018-11-20T01:44:40.711Z,10.43
2018-11-20T01:47:24.210Z,10.47
2018-11-20T01:50:11.889Z,10.63
2018-11-20T01:52:56.719Z,10.17
2018-11-20T01:55:47.300Z,10.23
2018-11-20T01:58:40.904Z,10.77
2018-11-20T02:01:27.052Z,11.17
2018-11-20T02:04:13.372Z,10.53
2018-11-20T02:07:00.988Z,10.40
2018-11-20T02:09:41.954Z,9.37
2018-11-20T02:12:28.371Z,10.97
2018-11-20T02:15:07.401Z,11.47
2018-11-20T02:17:51.071Z,11.00
2018-11-20T02:20:37.558Z,10.07
2018-11-20T02:23:24.132Z,11.07
2018-11-20T02:26:11.812Z,11.27
2018-11-20T02:29:11.250Z,10.97
2018-11-20T02:32:01.493Z,11.33
2018-11-20T02:35:04.383Z,8.00
2018-11-20T02:38:00.736Z,8.07
2018-11-20T02:40:48.404Z,10.27
2018-11-20T02:43:27.398Z,10.93
2018-11-20T02:46:27.349Z,11.17
2018-11-20T02:49:23.868Z,8.47
2018-11-20T02:52:10.288Z,10.80
2018-11-20T02:54:57.996Z,11.53
2018-11-20T02:57:51.728Z,11.07
2018-11-20T03:00:38.440Z,11.53
2018-11-20T03:03:24.730Z,11.73
2018-11-20T03:06:11.017Z,11.53
2018-11-20T03:08:52.219Z,11.27
2018-11-20T03:11:42.561Z,10.20
2018-11-20T03:14:26.631Z,11.20
2018-11-20T03:17:22.502Z,11.27
2018-11-20T03:20:08.563Z,9.63
2018-11-20T03:23:08.461Z,12.40
2018-11-20T03:26:21.211Z,11.93
2018-11-20T03:30:06.215Z,11.13
2018-11-20T03:32:45.715Z,12.20
2018-11-20T03:35:36.071Z,12.73
2018-11-20T03:38:35.952Z,11.33
2018-11-20T03:41:26.531Z,13.17
2018-11-20T03:44:04.473Z,10.13
2018-11-20T03:47:04.313Z,11.13
2018-11-20T03:49:50.819Z,14.70
2018-11-20T03:52:47.542Z,12.90
2018-11-20T03:55:38.104Z,13.30
2018-11-20T03:58:20.903Z,12.87
2018-11-20T04:01:08.590Z,12.77
2018-11-20T04:03:48.052Z,12.37
2018-11-20T04:06:31.543Z,10.30
2018-11-20T04:09:22.081Z,11.57
2018-11-20T04:12:09.785Z,12.20
2018-11-20T04:15:15.446Z,11.30
2018-11-20T04:18:12.017Z,14.50
2018-11-20T04:21:11.556Z,13.27
2018-11-20T04:23:50.710Z,13.37
2018-11-20T04:26:35.504Z,13.27
2018-11-20T04:29:14.059Z,11.07
2018-11-20T04:32:01.567Z,10.93
2018-11-20T04:34:49.271Z,10.13
2018-11-20T04:37:37.447Z,11.67
2018-11-20T04:40:17.201Z,12.23
2018-11-20T04:43:08.755Z,10.70
2018-11-20T04:45:56.423Z,13.70
2018-11-20T04:48:53.338Z,11.67
2018-11-20T04:51:43.929Z,13.70
2018-11-20T04:54:49.595Z,14.73
2018-11-20T04:57:36.191Z,13.63
2018-11-20T05:00:24.892Z,10.60
2018-11-20T05:03:27.749Z,12.40
2018-11-20T05:06:14.283Z,13.93
2018-11-20T05:09:00.437Z,13.43
2018-11-20T05:11:37.182Z,14.13
2018-11-20T05:14:15.895Z,15.27
2018-11-20T05:17:02.389Z,14.47
2018-11-20T05:19:55.865Z,12.87
2018-11-20T05:22:52.645Z,14.00
2018-11-20T05:25:38.704Z,14.20
2018-11-20T05:28:18.439Z,11.30
2018-11-20T05:31:12.160Z,13.17
2018-11-20T05:33:57.830Z,13.87
2018-11-20T05:36:39.029Z,12.80
2018-11-20T05:39:28.074Z,13.30
2018-11-20T05:42:07.070Z,11.80
2018-11-20T05:44:54.783Z,11.10
2018-11-20T05:47:48.099Z,14.30
2018-11-20T05:50:47.977Z,9.50
2018-11-20T05:53:28.315Z,12.97
2018-11-20T05:56:10.779Z,11.60
2018-11-20T05:59:04.354Z,13.47
2018-11-20T06:02:00.923Z,13.30
2018-11-20T06:04:47.272Z,12.90
2018-11-20T06:07:26.074Z,11.67
2018-11-20T06:10:13.737Z,14.73
2018-11-20T06:13:10.448Z,10.50
2018-11-20T06:16:13.337Z,14.40
2018-11-20T06:19:19.103Z,13.00
2018-11-20T06:22:21.681Z,11.40
2018-11-20T06:25:05.033Z,11.57
2018-11-20T06:27:58.402Z,13.50
2018-11-20T06:30:44.529Z,14.57
2018-11-20T06:33:37.275Z,15.17
2018-11-20T06:36:24.569Z,14.80
2018-11-20T06:39:17.930Z,12.70
2018-11-20T06:42:19.578Z,13.30
2018-11-20T06:45:22.365Z,11.33
2018-11-20T06:48:10.316Z,13.67
2018-11-20T06:50:56.356Z,12.40
2018-11-20T06:53:36.198Z,13.27
2018-11-20T06:56:26.093Z,14.73
2018-11-20T06:59:16.781Z,13.00
2018-11-20T07:02:10.561Z,13.60
2018-11-20T07:04:56.856Z,14.57
2018-11-20T07:07:43.223Z,15.17
2018-11-20T07:10:33.378Z,15.73
2018-11-20T07:13:44.579Z,15.30
2018-11-20T07:16:48.116Z,14.73
2018-11-20T07:19:52.337Z,15.30
2018-11-20T07:22:38.994Z,14.73
2018-11-20T07:25:25.659Z,13.30
2018-11-20T07:28:16.406Z,14.17
2018-11-20T07:31:02.667Z,15.07
2018-11-20T07:34:08.349Z,13.20
2018-11-20T07:37:02.018Z,12.97
2018-11-20T07:39:55.716Z,15.27
2018-11-20T07:42:44.002Z,16.53
2018-11-20T07:45:31.661Z,11.23
2018-11-20T07:48:28.421Z,11.07
2018-11-20T07:51:16.092Z,14.47
2018-11-20T07:54:02.243Z,16.90
2018-11-20T07:56:58.863Z,14.83
2018-11-20T07:59:49.149Z,16.87
2018-11-20T08:02:42.849Z,17.23
2018-11-20T08:05:30.498Z,18.20
2018-11-20T08:08:30.009Z,18.37
2018-11-20T08:11:32.565Z,17.17
2018-11-20T08:14:09.538Z,16.90
2018-11-20T08:16:52.317Z,14.00
2018-11-20T08:19:40.010Z,17.80
2018-11-20T08:22:30.563Z,18.10
2018-11-20T08:25:18.270Z,17.97
2018-11-20T08:28:04.649Z,17.13
2018-11-20T08:30:50.988Z,16.20
2018-11-20T08:33:37.390Z,17.73
2018-11-20T08:36:17.263Z,13.33
2018-11-20T08:39:03.418Z,15.20
2018-11-20T08:41:49.743Z,16.10
2018-11-20T08:44:35.958Z,15.20
2018-11-20T08:47:28.491Z,15.03
2018-11-20T08:50:34.433Z,15.97
2018-11-20T08:53:34.212Z,16.13
2018-11-20T08:56:14.995Z,15.47
2018-11-20T08:59:02.778Z,14.67
2018-11-20T09:02:02.805Z,11.67
2018-11-20T09:04:43.754Z,13.60
2018-11-20T09:07:24.622Z,12.63
2018-11-20T09:10:03.626Z,14.33
2018-11-20T09:12:49.912Z,10.07
2018-11-20T09:15:44.123Z,15.77
2018-11-20T09:18:34.653Z,16.23
2018-11-20T09:21:17.265Z,14.90
2018-11-20T09:24:13.572Z,15.53
2018-11-20T09:26:52.297Z,12.70
2018-11-20T09:29:39.950Z,15.17
2018-11-20T09:32:27.634Z,10.77
2018-11-20T09:35:15.425Z,14.70
2018-11-20T09:37:58.493Z,13.30
2018-11-20T09:41:05.778Z,10.40
2018-11-20T09:44:10.409Z,13.13
2018-11-20T09:46:50.719Z,11.17
2018-11-20T09:49:40.950Z,15.37
2018-11-20T09:52:27.453Z,15.63
2018-11-20T09:55:30.324Z,12.57
2018-11-20T09:58:16.747Z,14.53
2018-11-20T10:01:04.448Z,13.33
2018-11-20T10:03:50.809Z,15.77
2018-11-20T10:06:37.069Z,14.10
2018-11-20T10:09:30.898Z,13.83
2018-11-20T10:12:17.240Z,12.87
2018-11-20T10:15:03.754Z,10.00
2018-11-20T10:17:52.091Z,14.23
2018-11-20T10:20:39.781Z,13.93
2018-11-20T10:23:36.169Z,14.73
2018-11-20T10:26:22.882Z,13.93
2018-11-20T10:29:09.096Z,14.47
2018-11-20T10:32:10.679Z,13.83
2018-11-20T10:34:58.278Z,15.20
2018-11-20T10:37:33.006Z,14.37
2018-11-20T10:40:20.730Z,14.30
2018-11-20T10:43:07.104Z,12.93
2018-11-20T10:45:53.312Z,11.13
2018-11-20T10:48:38.363Z,13.03
2018-11-20T10:51:15.822Z,13.60
2018-11-20T10:54:13.777Z,13.13
2018-11-20T10:56:59.905Z,13.50
2018-11-20T10:59:53.612Z,13.40
2018-11-20T11:02:42.162Z,12.70
2018-11-20T11:05:29.533Z,10.93
2018-11-20T11:08:16.041Z,13.50
2018-11-20T11:11:09.508Z,14.77
2018-11-20T11:14:05.119Z,11.93
2018-11-20T11:16:51.295Z,11.43
2018-11-20T11:19:37.633Z,15.87
2018-11-20T11:22:25.731Z,12.37
2018-11-20T11:25:08.221Z,13.93
2018-11-20T11:27:56.021Z,11.83
2018-11-20T11:30:46.511Z,12.47
2018-11-20T11:33:49.436Z,10.73
2018-11-20T11:36:55.027Z,13.87
2018-11-20T11:39:41.127Z,11.97
2018-11-20T11:42:44.088Z,9.93
2018-11-20T11:45:34.396Z,11.47
2018-11-20T11:48:22.098Z,11.50
2018-11-20T11:51:15.838Z,13.40
2018-11-20T11:54:21.630Z,11.70
2018-11-20T11:57:09.338Z,14.97
2018-11-20T12:00:09.039Z,13.60
2018-11-20T12:06:03.218Z,12.37
2018-11-20T12:08:52.560Z,14.47
2018-11-20T12:11:42.153Z,12.80
2018-11-20T12:14:39.038Z,9.57
2018-11-20T12:17:32.914Z,13.20
2018-11-20T12:20:26.578Z,13.67
2018-11-20T12:23:26.915Z,13.87
2018-11-20T12:26:22.501Z,10.73
2018-11-20T12:29:28.524Z,14.17
2018-11-20T12:32:09.692Z,12.40
2018-11-20T12:35:13.655Z,13.40
2018-11-20T12:37:59.348Z,11.93
2018-11-20T12:40:51.619Z,14.13
2018-11-20T12:43:39.341Z,11.40
2018-11-20T12:46:25.643Z,14.63
2018-11-20T12:49:11.963Z,13.50
2018-11-20T12:51:59.635Z,12.83
2018-11-20T12:54:47.307Z,13.87
2018-11-20T12:57:37.704Z,10.27
2018-11-20T13:00:29.363Z,14.17
2018-11-20T13:03:23.177Z,14.20
2018-11-20T13:06:09.456Z,13.60
2018-11-20T13:08:56.012Z,11.57
2018-11-20T13:11:49.322Z,14.13
2018-11-20T13:14:38.540Z,11.37
2018-11-20T13:17:23.339Z,11.07
2018-11-20T13:20:10.606Z,10.03
2018-11-20T13:22:57.881Z,12.37
2018-11-20T13:25:51.402Z,13.87
2018-11-20T13:28:32.537Z,13.33
2018-11-20T13:31:16.484Z,14.87
2018-11-20T13:34:20.852Z,14.67
2018-11-20T13:37:02.076Z,14.23
2018-11-20T13:39:49.759Z,13.57
2018-11-20T13:42:49.227Z,13.50
2018-11-20T13:45:43.737Z,14.50
2018-11-20T13:48:29.889Z,13.07
2018-11-20T13:51:32.519Z,13.93
2018-11-20T13:54:18.975Z,13.97
2018-11-20T13:57:05.444Z,15.57
2018-11-20T14:00:08.135Z,13.50
2018-11-20T14:03:04.763Z,10.17
2018-11-20T14:06:07.398Z,13.30
2018-11-20T14:08:53.989Z,14.80
2018-11-20T14:11:40.063Z,14.07
2018-11-20T14:14:30.731Z,14.07
2018-11-20T14:17:17.171Z,15.27
2018-11-20T14:20:08.009Z,13.73
2018-11-20T14:22:54.547Z,12.40
2018-11-20T14:25:44.248Z,13.00
2018-11-20T14:28:37.901Z,11.57
2018-11-20T14:31:41.586Z,13.33
2018-11-20T14:34:25.549Z,11.13
2018-11-20T14:37:25.220Z,15.13
2018-11-20T14:40:21.550Z,14.03
2018-11-20T14:43:18.310Z,13.77
2018-11-20T14:46:24.178Z,13.90
2018-11-20T14:49:10.350Z,14.53
2018-11-20T14:51:55.526Z,14.50
2018-11-20T14:54:42.791Z,13.50
2018-11-20T14:57:28.645Z,11.80
2018-11-20T15:00:14.749Z,14.63
2018-11-20T15:03:02.443Z,14.00
2018-11-20T15:05:50.137Z,12.07
2018-11-20T15:08:44.228Z,15.27
2018-11-20T15:11:27.457Z,15.53
2018-11-20T15:14:21.404Z,15.37
2018-11-20T15:17:08.028Z,14.63
2018-11-20T15:20:01.787Z,15.77
2018-11-20T15:23:01.710Z,16.90
2018-11-20T15:26:03.994Z,16.60
2018-11-20T15:28:44.792Z,15.73
2018-11-20T15:31:26.264Z,17.15
2018-11-20T15:34:14.153Z,16.62
2018-11-20T15:37:20.518Z,17.52
2018-11-20T15:40:07.047Z,13.18
2018-11-20T15:42:54.343Z,17.10
2018-11-20T15:45:35.708Z,16.90
2018-11-20T15:48:24.220Z,16.87
2018-11-20T15:51:24.382Z,14.65
2018-11-20T15:54:30.793Z,17.35
2018-11-20T15:57:34.259Z,20.67
2018-11-20T16:00:25.014Z,15.90
2018-11-20T16:03:25.068Z,19.50
2018-11-20T16:06:13.578Z,19.10
2018-11-20T16:10:22.144Z,20.80
2018-11-20T16:13:20.918Z,21.35
2018-11-20T16:16:07.862Z,20.55
2018-11-20T16:18:54.787Z,18.42
2018-11-20T16:21:40.229Z,20.57
2018-11-20T16:24:25.478Z,18.67
2018-11-20T16:27:24.552Z,20.15
2018-11-20T16:30:10.114Z,19.10
2018-11-20T16:33:02.627Z,19.55
2018-11-20T16:36:04.334Z,17.75
2018-11-20T16:38:49.894Z,20.95
2018-11-20T16:41:48.985Z,21.95
2018-11-20T16:44:36.220Z,20.35
2018-11-20T16:47:23.717Z,20.27
2018-11-20T16:50:09.143Z,19.87
2018-11-20T16:53:14.417Z,21.55
2018-11-20T16:56:07.236Z,21.62
2018-11-20T16:58:47.366Z,20.62
2018-11-20T17:01:42.930Z,20.68
2018-11-20T17:04:38.941Z,18.53
2018-11-20T17:07:34.942Z,21.12
2018-11-20T17:10:21.933Z,20.50
2018-11-20T17:13:20.910Z,18.60
2018-11-20T17:16:10.694Z,18.62
2018-11-20T17:19:15.712Z,19.07
2018-11-20T17:22:03.075Z,20.40
2018-11-20T17:24:48.700Z,19.50
2018-11-20T17:27:41.493Z,17.95
2018-11-20T17:30:28.782Z,19.67
2018-11-20T17:33:12.356Z,20.43
2018-11-20T17:35:57.659Z,19.07
2018-11-20T17:38:39.022Z,19.33
2018-11-20T17:41:31.664Z,20.00
2018-11-20T17:44:28.290Z,17.63
2018-11-20T17:47:17.832Z,19.77
2018-11-20T17:50:10.265Z,22.57
2018-11-20T17:52:56.662Z,20.37
2018-11-20T17:55:43.555Z,19.00
2018-11-20T17:58:24.133Z,18.87
2018-11-20T18:01:05.013Z,13.77
2018-11-20T18:04:09.838Z,19.57
2018-11-20T18:06:54.502Z,19.27
2018-11-20T18:09:47.196Z,19.05
2018-11-20T18:12:49.664Z,16.20
2018-11-20T18:15:42.383Z,19.32
2018-11-20T18:18:28.573Z,17.80
2018-11-20T18:21:21.320Z,13.80
2018-11-20T18:24:06.679Z,14.90
2018-11-20T18:26:52.436Z,15.98
2018-11-20T18:29:42.273Z,18.82
2018-11-20T18:32:27.645Z,14.40
2018-11-20T18:35:13.463Z,16.87
2018-11-20T18:38:09.219Z,11.17
2018-11-20T18:40:54.666Z,12.83
2018-11-20T18:43:47.097Z,13.83
2018-11-20T18:46:48.949Z,15.83
2018-11-20T18:49:33.754Z,14.93
2018-11-20T18:52:27.235Z,13.83
2018-11-20T18:55:14.139Z,13.03
2018-11-20T18:57:59.479Z,15.98
2018-11-20T19:00:37.835Z,14.43
2018-11-20T19:03:23.244Z,17.17
2018-11-20T19:06:22.105Z,15.33
2018-11-20T19:09:07.595Z,14.57
2018-11-20T19:11:52.936Z,12.50
2018-11-20T19:14:45.735Z,12.60
2018-11-20T19:17:31.431Z,15.33
2018-11-20T19:20:17.144Z,17.42
2018-11-20T19:23:02.711Z,14.53
2018-11-20T19:25:58.615Z,15.75
2018-11-20T19:28:44.163Z,17.07
2018-11-20T19:31:29.721Z,14.17
2018-11-20T19:34:15.197Z,17.03
2018-11-20T19:37:00.527Z,13.93
2018-11-20T19:39:48.181Z,17.95
2018-11-20T19:42:33.933Z,11.23
2018-11-20T19:45:19.420Z,16.53
2018-11-20T19:48:05.063Z,15.60
2018-11-20T19:50:57.882Z,17.37
2018-11-20T19:53:56.683Z,17.33
2018-11-20T19:56:42.336Z,13.97
2018-11-20T19:59:42.646Z,18.37
2018-11-20T20:02:48.017Z,14.67
2018-11-20T20:05:34.991Z,15.77
2018-11-20T20:08:21.891Z,18.10
2018-11-20T20:11:01.281Z,19.20
2018-11-20T20:13:51.016Z,12.90
2018-11-20T20:16:44.173Z,18.97
2018-11-20T20:19:43.061Z,17.17
2018-11-20T20:22:21.827Z,15.73
2018-11-20T20:25:11.856Z,15.23
2018-11-20T20:28:13.959Z,12.80
2018-11-20T20:30:53.986Z,18.37
2018-11-20T20:33:39.434Z,18.40
2018-11-20T20:36:24.847Z,20.73
2018-11-20T20:39:26.776Z,19.33
2018-11-20T20:42:12.581Z,18.90
2018-11-20T20:44:58.037Z,11.63
2018-11-20T20:47:57.171Z,18.27
2018-11-20T20:50:42.828Z,20.10
2018-11-20T20:53:28.683Z,16.20
2018-11-20T20:56:15.725Z,19.30
2018-11-20T20:59:01.724Z,16.10
2018-11-20T21:01:51.556Z,19.37
2018-11-20T21:04:52.984Z,18.90
2018-11-20T21:07:51.609Z,18.97
2018-11-20T21:10:37.269Z,19.47
2018-11-20T21:13:28.811Z,17.80
2018-11-20T21:16:14.494Z,19.40
2018-11-20T21:19:19.555Z,18.50
2018-11-20T21:22:12.341Z,12.93
2018-11-20T21:25:09.854Z,15.83
2018-11-20T21:27:55.217Z,20.37
2018-11-20T21:30:47.961Z,17.37
2018-11-20T21:33:26.867Z,18.67
2018-11-20T21:36:12.413Z,16.60
2018-11-20T21:38:59.451Z,12.10
2018-11-20T21:41:49.038Z,19.20
2018-11-20T21:44:31.270Z,21.40
2018-11-20T21:47:17.023Z,16.00
2018-11-20T21:50:02.365Z,20.20
2018-11-20T21:52:41.948Z,22.20
2018-11-20T21:55:34.935Z,21.23
2018-11-20T21:58:24.599Z,19.27
2018-11-20T22:01:15.028Z,21.73
2018-11-20T22:04:17.072Z,22.07
2018-11-20T22:07:21.903Z,23.77
2018-11-20T22:10:11.882Z,22.00
2018-11-20T22:12:57.383Z,22.40
2018-11-20T22:15:53.349Z,25.17
2018-11-20T22:18:49.252Z,23.93
2018-11-20T22:21:30.673Z,24.03
2018-11-20T22:24:16.256Z,25.63
2018-11-20T22:27:21.159Z,20.60
2018-11-20T22:30:10.862Z,24.73
2018-11-20T22:33:00.379Z,25.53
2018-11-20T22:35:42.761Z,22.13
2018-11-20T22:38:27.641Z,26.00
2018-11-20T22:41:20.566Z,20.73
2018-11-20T22:44:01.134Z,25.55
2018-11-20T22:46:46.706Z,20.90
2018-11-20T22:49:32.944Z,24.33
2018-11-20T22:52:07.393Z,26.77
2018-11-20T22:55:12.590Z,26.10
2018-11-20T22:57:58.404Z,24.13
2018-11-20T23:00:44.070Z,25.77
2018-11-20T23:03:29.770Z,25.73
2018-11-20T23:06:24.686Z,20.90
2018-11-20T23:08:52.125Z,18.27
2018-11-20T23:11:19.485Z,21.87
2018-11-20T23:13:46.890Z,25.72
2018-11-20T23:16:14.255Z,26.03
2018-11-20T23:18:41.627Z,24.73
2018-11-20T23:21:08.977Z,28.63
2018-11-20T23:23:36.350Z,27.30
2018-11-20T23:26:03.754Z,28.83
2018-11-20T23:28:31.128Z,29.80
2018-11-20T23:30:58.596Z,21.67
2018-11-20T23:33:25.992Z,27.30
2018-11-20T23:35:53.362Z,23.32
2018-11-20T23:38:20.761Z,29.50
2018-11-20T23:40:48.179Z,28.17
2018-11-20T23:43:15.510Z,28.27
2018-11-20T23:45:42.882Z,24.43
2018-11-20T23:48:10.424Z,30.68
2018-11-20T23:50:37.764Z,29.47
2018-11-20T23:53:05.112Z,27.20
2018-11-20T23:55:32.526Z,29.87
2018-11-20T23:57:59.897Z,26.90
